Time;durP1;ratioP1;P1;durP2;ratioP2;P2;SDS_P1;SDS_P2;PMS_P1;PMS_P2;Temp;Humidity;BMP_temperature;BMP_pressure;BME280_temperature;BME280_humidity;BME280_pressure;Samples;Min_cycle;Max_cycle;Signal;HPM_P1;HPM_P2
2022/06/05 00:00:07;;;;;;;;;;;;;;;22.67;42.52;102047.81;5003055;28;20015;-68
2022/06/05 00:02:39;;;;;;;;;;;;;;;22.67;42.55;102045.19;4991650;28;19920;-68
2022/06/05 00:05:26;;;;;;;;;;;;;;;22.68;42.50;102043.47;5013127;28;19921;-68
2022/06/05 00:08:06;;;;;;;;;;;;;;;22.68;42.17;102054.84;5041769;23;20294;-52
2022/06/05 00:10:34;;;;;;;;;;;;;;;22.68;42.30;102059.22;5028683;28;19921;-50
2022/06/05 00:13:09;;;;;;;;;;;;;;;22.67;42.76;102058.31;5012412;28;19920;-51
2022/06/05 00:15:34;;;;;;;;;;;;;;;22.67;42.61;102058.31;5013450;28;20256;-49
2022/06/05 00:18:00;;;;;;;;;;;;;;;22.68;42.37;102056.59;4991260;28;19944;-52
2022/06/05 00:20:25;;;;;;;;;;;;;;;22.67;42.45;102058.31;4992201;28;19914;-45
2022/06/05 00:22:50;;;;;;;;;;;;;;;22.68;42.55;102049.59;4992057;28;19913;-49
2022/06/05 00:25:16;;;;;;;;;;;;;;;22.67;42.23;102047.81;4992395;28;19914;-52
2022/06/05 00:27:48;;;;;;;;;;;;;;;22.67;42.48;102042.56;5008540;28;19963;-53
2022/06/05 00:30:18;;;;;;;;;;;;;;;22.67;42.55;102042.56;5013022;28;19966;-47
2022/06/05 00:32:44;;;;;;;;;;;;;;;22.67;42.64;102042.56;4996218;28;19927;-51
2022/06/05 00:35:11;;;;;;;;;;;;;;;22.67;42.68;102032.06;5009812;28;20008;-52
2022/06/05 00:37:40;;;;;;;;;;;;;;;22.68;42.45;102022.44;5034360;28;20309;-49
2022/06/05 00:40:18;;;;;;;;;;;;;;;22.67;42.18;102025.94;5011471;28;19913;-48
2022/06/05 00:42:43;;;;;;;;;;;;;;;22.67;42.59;102025.94;5025819;28;19960;-51
2022/06/05 00:45:09;;;;;;;;;;;;;;;22.68;42.55;102022.44;4996501;28;20417;-54
2022/06/05 00:47:38;;;;;;;;;;;;;;;22.66;42.36;102019.78;5010232;28;19923;-47
2022/06/05 00:50:14;;;;;;;;;;;;;;;22.67;42.49;102029.44;4993262;28;19917;-52
2022/06/05 00:52:41;;;;;;;;;;;;;;;22.67;42.36;102016.28;5009808;28;21145;-54
2022/06/05 00:55:06;;;;;;;;;;;;;;;22.67;42.42;102021.56;5010325;28;19918;-49
2022/06/05 00:57:32;;;;;;;;;;;;;;;22.68;42.67;102012.81;4994826;28;19928;-54
2022/06/05 00:59:59;;;;;;;;;;;;;;;22.68;42.60;102007.56;5008159;28;20060;-53
2022/06/05 01:02:25;;;;;;;;;;;;;;;22.68;42.45;102002.31;4996895;28;19917;-53
2022/06/05 01:04:50;;;;;;;;;;;;;;;22.68;42.63;102007.56;5014668;28;19913;-53
2022/06/05 01:07:16;;;;;;;;;;;;;;;22.68;42.31;102012.81;5014891;28;19921;-52
2022/06/05 01:09:42;;;;;;;;;;;;;;;22.66;42.42;102004.03;5016695;28;20012;-53
2022/06/05 01:12:07;;;;;;;;;;;;;;;22.68;42.43;102002.31;5015101;28;19920;-51
2022/06/05 01:14:51;;;;;;;;;;;;;;;22.67;42.70;102003.16;5014322;28;19922;-56
2022/06/05 01:17:24;;;;;;;;;;;;;;;22.67;42.75;101995.28;5016510;28;19917;-48
2022/06/05 01:20:22;;;;;;;;;;;;;;;22.67;42.46;102000.53;5022259;28;19961;-51
2022/06/05 01:23:01;;;;;;;;;;;;;;;22.66;42.64;102001.41;4993313;28;19917;-52
2022/06/05 01:25:43;;;;;;;;;;;;;;;22.67;42.66;102005.78;5012755;28;19924;-48
2022/06/05 01:28:14;;;;;;;;;;;;;;;22.67;42.34;101997.91;5014581;28;19943;-52
2022/06/05 01:31:00;;;;;;;;;;;;;;;22.67;42.46;101989.16;5028750;28;20004;-52
2022/06/05 01:33:26;;;;;;;;;;;;;;;22.68;42.69;101990.94;5008273;28;20012;-48
2022/06/05 01:36:08;;;;;;;;;;;;;;;22.68;42.82;101990.94;5013738;28;19920;-52
2022/06/05 01:38:45;;;;;;;;;;;;;;;22.67;42.56;101984.78;4997902;28;19914;-53
2022/06/05 01:41:15;;;;;;;;;;;;;;;22.67;42.62;101974.28;5047395;28;19959;-49
2022/06/05 01:43:41;;;;;;;;;;;;;;;22.66;42.46;101985.63;4998576;28;19924;-50
2022/06/05 01:46:14;;;;;;;;;;;;;;;22.67;42.46;101978.66;5014311;28;19917;-46
2022/06/05 01:48:50;;;;;;;;;;;;;;;22.67;42.58;101978.66;4997809;28;19913;-48
2022/06/05 01:51:25;;;;;;;;;;;;;;;22.66;43.10;101972.50;5014355;28;19914;-49
2022/06/05 01:53:50;;;;;;;;;;;;;;;22.66;42.34;101967.25;5011739;28;20283;-47
2022/06/05 01:56:18;;;;;;;;;;;;;;;22.66;42.64;101967.25;5028842;28;19918;-47
2022/06/05 01:58:45;;;;;;;;;;;;;;;22.67;42.60;101969.03;5013604;28;19918;-48
2022/06/05 02:01:12;;;;;;;;;;;;;;;22.66;42.56;101964.63;5016716;28;19917;-50
2022/06/05 02:03:38;;;;;;;;;;;;;;;22.65;42.50;101960.25;5005192;28;19920;-44
2022/06/05 02:06:04;;;;;;;;;;;;;;;22.66;42.48;101962.00;5010391;28;19997;-48
2022/06/05 02:08:34;;;;;;;;;;;;;;;22.66;42.22;101955.88;5016971;28;20056;-50
2022/06/05 02:11:00;;;;;;;;;;;;;;;22.66;42.30;101948.88;4998755;28;19921;-47
2022/06/05 02:13:25;;;;;;;;;;;;;;;22.65;41.95;101954.97;5020570;28;19913;-48
2022/06/05 02:15:50;;;;;;;;;;;;;;;22.66;42.39;101962.00;5020004;28;20373;-50
2022/06/05 02:18:15;;;;;;;;;;;;;;;22.67;42.26;101961.16;5013854;28;20290;-44
2022/06/05 02:20:44;;;;;;;;;;;;;;;22.65;42.27;101957.63;5014527;28;19960;-52
2022/06/05 02:23:11;;;;;;;;;;;;;;;22.66;42.33;101953.25;5010977;28;19917;-51
2022/06/05 02:25:37;;;;;;;;;;;;;;;22.64;42.26;101944.47;5029590;28;19921;-43
2022/06/05 02:28:03;;;;;;;;;;;;;;;22.65;42.40;101944.47;5013475;28;19924;-47
2022/06/05 02:30:32;;;;;;;;;;;;;;;22.64;42.28;101950.59;5013495;28;19913;-45
2022/06/05 02:33:09;;;;;;;;;;;;;;;22.64;42.29;101953.22;5013827;28;19991;-47
2022/06/05 02:35:34;;;;;;;;;;;;;;;22.64;42.64;101940.09;5012813;28;19917;-44
2022/06/05 02:38:09;;;;;;;;;;;;;;;22.64;42.52;101945.34;5014413;28;19924;-49
2022/06/05 02:40:55;;;;;;;;;;;;;;;22.64;42.56;101937.47;5013456;28;20397;-47
2022/06/05 02:43:23;;;;;;;;;;;;;;;22.64;42.51;101937.47;5029212;28;19925;-49
2022/06/05 02:46:02;;;;;;;;;;;;;;;22.65;42.34;101939.22;5013257;28;20350;-44
2022/06/05 02:48:33;;;;;;;;;;;;;;;22.65;42.25;101944.47;4997144;28;20416;-50
2022/06/05 02:51:15;;;;;;;;;;;;;;;22.64;42.34;101947.97;5007531;28;19929;-47
2022/06/05 02:53:59;;;;;;;;;;;;;;;22.65;42.13;101948.88;5013056;28;19914;-54
2022/06/05 02:56:26;;;;;;;;;;;;;;;22.65;42.37;101949.72;4996966;28;20267;-51
2022/06/05 02:58:54;;;;;;;;;;;;;;;22.65;42.16;101952.34;4996829;28;19917;-53
2022/06/05 03:04:07;;;;;;;;;;;;;;;22.63;42.46;101940.94;5013571;28;19989;-49
2022/06/05 03:06:33;;;;;;;;;;;;;;;22.64;42.52;101947.97;5012738;28;19966;-50
2022/06/05 03:08:58;;;;;;;;;;;;;;;22.63;42.09;101948.81;5012914;28;20023;-48
2022/06/05 03:11:23;;;;;;;;;;;;;;;22.64;42.39;101942.72;5012951;28;20076;-47
2022/06/05 03:13:48;;;;;;;;;;;;;;;22.63;42.39;101930.44;5011875;28;19929;-50
2022/06/05 03:16:14;;;;;;;;;;;;;;;22.63;42.23;101933.06;5012669;28;19913;-49
2022/06/05 03:18:39;;;;;;;;;;;;;;;22.64;42.59;101932.22;5012996;28;19913;-52
2022/06/05 03:21:04;;;;;;;;;;;;;;;22.64;42.07;101947.97;5013553;28;19917;-46
2022/06/05 03:23:31;;;;;;;;;;;;;;;22.64;42.26;101942.72;5012717;28;20330;-50
2022/06/05 03:25:57;;;;;;;;;;;;;;;22.65;42.13;101944.47;5013119;28;20007;-50
2022/06/05 03:28:22;;;;;;;;;;;;;;;22.64;42.33;101947.97;4997004;28;20348;-49
2022/06/05 03:30:47;;;;;;;;;;;;;;;22.65;42.64;101933.97;5012787;28;19963;-47
2022/06/05 03:33:12;;;;;;;;;;;;;;;22.64;42.24;101932.22;5012502;28;20282;-50
2022/06/05 03:35:39;;;;;;;;;;;;;;;22.65;42.52;101941.84;5024002;28;20429;-45
2022/06/05 03:38:05;;;;;;;;;;;;;;;22.65;42.22;101947.09;5001924;28;19953;-49
2022/06/05 03:40:30;;;;;;;;;;;;;;;22.65;42.41;101939.22;5012461;28;19963;-49
2022/06/05 03:42:56;;;;;;;;;;;;;;;22.65;42.14;101939.22;5012499;28;20315;-47
2022/06/05 03:45:21;;;;;;;;;;;;;;;22.64;42.15;101940.09;4995492;28;20350;-47
2022/06/05 03:47:46;;;;;;;;;;;;;;;22.65;42.37;101939.22;5029279;28;19919;-45
2022/06/05 03:50:12;;;;;;;;;;;;;;;22.65;42.26;101933.97;5013643;28;19991;-49
2022/06/05 03:52:37;;;;;;;;;;;;;;;22.65;42.13;101939.22;5007188;28;19944;-47
2022/06/05 03:55:02;;;;;;;;;;;;;;;22.65;42.01;101939.22;5027293;28;20428;-50
2022/06/05 03:57:28;;;;;;;;;;;;;;;22.65;42.28;101933.97;4996887;28;19917;-44
2022/06/05 03:59:53;;;;;;;;;;;;;;;22.66;42.58;101938.38;5020429;28;19917;-48
2022/06/05 04:02:19;;;;;;;;;;;;;;;22.67;42.43;101937.53;5012647;28;19964;-47
2022/06/05 04:04:44;;;;;;;;;;;;;;;22.66;42.50;101934.88;5028642;28;19997;-44
2022/06/05 04:07:09;;;;;;;;;;;;;;;22.67;42.42;101931.41;5011738;28;20013;-47
2022/06/05 04:09:34;;;;;;;;;;;;;;;22.67;42.14;101926.16;5014826;28;20011;-45
2022/06/05 04:11:59;;;;;;;;;;;;;;;22.67;42.13;101919.13;5028165;28;19917;-52
2022/06/05 04:14:25;;;;;;;;;;;;;;;22.67;42.12;101927.03;5012851;28;19917;-46
2022/06/05 04:16:50;;;;;;;;;;;;;;;22.68;42.02;101934.03;5012339;28;19921;-50
2022/06/05 04:19:15;;;;;;;;;;;;;;;22.67;42.24;101932.28;5028217;28;19917;-49
2022/06/05 04:21:41;;;;;;;;;;;;;;;22.67;42.14;101934.91;4986236;28;20393;-50
2022/06/05 04:24:09;;;;;;;;;;;;;;;22.68;42.29;101934.03;5005770;28;19967;-45
2022/06/05 04:26:34;;;;;;;;;;;;;;;22.67;42.20;101932.28;4990581;28;19921;-44
2022/06/05 04:28:59;;;;;;;;;;;;;;;22.68;42.32;101927.91;5023844;28;19921;-46
2022/06/05 04:31:27;;;;;;;;;;;;;;;22.66;42.18;101927.88;5029479;28;20383;-46
2022/06/05 04:33:54;;;;;;;;;;;;;;;22.68;42.26;101926.16;5017911;28;20418;-45
2022/06/05 04:36:19;;;;;;;;;;;;;;;22.68;42.08;101923.53;5031265;28;19917;-47
2022/06/05 04:38:45;;;;;;;;;;;;;;;22.68;42.37;101918.28;5018684;28;19967;-44
2022/06/05 04:41:11;;;;;;;;;;;;;;;22.68;42.13;101910.41;5016867;28;19925;-49
2022/06/05 04:43:36;;;;;;;;;;;;;;;22.68;42.20;101902.53;5016328;28;19925;-45
2022/06/05 04:46:02;;;;;;;;;;;;;;;22.68;42.38;101901.66;5018172;28;19921;-44
2022/06/05 04:48:27;;;;;;;;;;;;;;;22.67;42.13;101900.75;5018012;28;19914;-48
2022/06/05 04:50:52;;;;;;;;;;;;;;;22.67;42.40;101903.38;5017753;28;19921;-46
2022/06/05 04:53:17;;;;;;;;;;;;;;;22.69;42.37;101909.56;5019277;28;20302;-47
2022/06/05 04:55:43;;;;;;;;;;;;;;;22.68;42.29;101902.53;5030109;28;20282;-48
2022/06/05 04:58:08;;;;;;;;;;;;;;;22.68;42.37;101905.16;5007828;28;20363;-48
2022/06/05 05:00:33;;;;;;;;;;;;;;;22.69;42.38;101899.03;5033641;28;20314;-49
2022/06/05 05:02:58;;;;;;;;;;;;;;;22.69;42.38;101888.53;5018658;28;19917;-44
2022/06/05 05:05:24;;;;;;;;;;;;;;;22.68;42.16;101881.53;5017389;28;19921;-48
2022/06/05 05:07:49;;;;;;;;;;;;;;;22.69;42.24;101883.28;5033699;28;20003;-49
2022/06/05 05:10:14;;;;;;;;;;;;;;;22.69;42.22;101883.28;5017197;28;19917;-45
2022/06/05 05:12:40;;;;;;;;;;;;;;;22.69;42.37;101872.78;5025752;28;19944;-50
2022/06/05 05:15:06;;;;;;;;;;;;;;;22.69;42.55;101872.78;5001408;28;19960;-47
2022/06/05 05:17:31;;;;;;;;;;;;;;;22.69;42.26;101875.41;5018679;28;19944;-49
2022/06/05 05:19:58;;;;;;;;;;;;;;;22.69;42.18;101878.03;5019185;28;19981;-49
2022/06/05 05:22:23;;;;;;;;;;;;;;;22.70;42.25;101879.81;5018380;28;19917;-47
2022/06/05 05:24:49;;;;;;;;;;;;;;;22.70;42.29;101869.31;5044499;28;19924;-46
2022/06/05 05:27:14;;;;;;;;;;;;;;;22.71;42.43;101870.22;5013755;28;19918;-46
2022/06/05 05:29:39;;;;;;;;;;;;;;;22.70;42.48;101874.56;5018558;28;19948;-51
2022/06/05 05:32:05;;;;;;;;;;;;;;;22.70;42.56;101874.56;5021220;28;19917;-46
2022/06/05 05:34:30;;;;;;;;;;;;;;;22.70;42.36;101864.06;5001551;28;20015;-52
2022/06/05 05:36:55;;;;;;;;;;;;;;;22.70;42.60;101861.44;5023483;28;19918;-44
2022/06/05 05:42:05;;;;;;;;;;;;;;;22.70;42.69;101858.81;5024923;28;19971;-50
2022/06/05 05:44:30;;;;;;;;;;;;;;;22.70;42.43;101858.81;5000932;28;20322;-47
2022/06/05 05:46:56;;;;;;;;;;;;;;;22.71;42.55;101855.31;5002146;28;19922;-45
2022/06/05 05:49:21;;;;;;;;;;;;;;;22.70;42.46;101845.66;5013781;28;19920;-53
2022/06/05 05:51:46;;;;;;;;;;;;;;;22.70;42.19;101837.78;5015097;28;19917;-49
2022/06/05 05:54:11;;;;;;;;;;;;;;;22.71;42.85;101843.94;5011142;28;19976;-48
2022/06/05 05:56:38;;;;;;;;;;;;;;;22.71;42.48;101836.94;5013673;28;19921;-49
2022/06/05 05:59:04;;;;;;;;;;;;;;;22.72;42.63;101836.09;5029966;28;20340;-45
2022/06/05 06:01:29;;;;;;;;;;;;;;;22.73;42.38;101842.22;5002761;28;20009;-52
2022/06/05 06:03:58;;;;;;;;;;;;;;;22.72;42.71;101851.84;5015043;28;20424;-56
2022/06/05 06:06:25;;;;;;;;;;;;;;;22.73;42.78;101852.72;5014639;28;19971;-55
2022/06/05 06:08:53;;;;;;;;;;;;;;;22.73;42.73;101850.97;5030310;28;19923;-49
2022/06/05 06:11:18;;;;;;;;;;;;;;;22.71;42.80;101857.94;5017952;28;19917;-51
2022/06/05 06:13:44;;;;;;;;;;;;;;;22.73;42.65;101858.00;5014365;28;20255;-55
2022/06/05 06:16:09;;;;;;;;;;;;;;;22.73;42.33;101858.84;5013786;28;20388;-53
2022/06/05 06:18:34;;;;;;;;;;;;;;;22.73;42.80;101858.84;5009697;28;19922;-52
2022/06/05 06:20:59;;;;;;;;;;;;;;;22.72;42.66;101862.34;5015956;28;19917;-51
2022/06/05 06:23:25;;;;;;;;;;;;;;;22.71;42.15;101855.31;5039150;28;19913;-47
2022/06/05 06:25:50;;;;;;;;;;;;;;;22.72;42.72;101862.34;5014755;28;19971;-53
2022/06/05 06:28:18;;;;;;;;;;;;;;;22.72;42.49;101870.22;5013488;28;20393;-52
2022/06/05 06:30:44;;;;;;;;;;;;;;;22.72;42.73;101866.72;5007560;28;19917;-48
2022/06/05 06:33:09;;;;;;;;;;;;;;;22.73;42.28;101877.25;5029439;28;20282;-54
2022/06/05 06:35:37;;;;;;;;;;;;;;;22.73;42.58;101861.47;5012245;28;19926;-52
2022/06/05 06:38:03;;;;;;;;;;;;;;;22.72;42.31;101857.09;5027259;28;19928;-50
2022/06/05 06:40:31;;;;;;;;;;;;;;;22.73;42.63;101861.47;4996142;28;19917;-48
2022/06/05 06:42:56;;;;;;;;;;;;;;;22.73;42.24;101864.09;5020399;28;19941;-50
2022/06/05 06:45:22;;;;;;;;;;;;;;;22.73;42.70;101861.47;5013684;28;20393;-48
2022/06/05 06:47:48;;;;;;;;;;;;;;;22.74;42.49;101859.75;5014117;28;20378;-50
2022/06/05 06:50:14;;;;;;;;;;;;;;;22.74;42.39;101854.50;5015480;28;20369;-52
2022/06/05 06:52:39;;;;;;;;;;;;;;;22.74;42.39;101850.13;4994633;28;20016;-50
2022/06/05 06:55:06;;;;;;;;;;;;;;;22.74;42.77;101850.13;5027454;28;19913;-48
2022/06/05 06:57:36;;;;;;;;;;;;;;;22.74;42.27;101847.50;5014257;28;19924;-51
2022/06/05 07:00:01;;;;;;;;;;;;;;;22.74;42.46;101850.13;5012674;28;19921;-52
2022/06/05 07:02:26;;;;;;;;;;;;;;;22.38;41.60;101861.69;5013549;28;19913;-58
2022/06/05 07:04:51;;;;;;;;;;;;;;;21.66;41.92;101842.66;5013531;28;19921;-54
2022/06/05 07:07:17;;;;;;;;;;;;;;;21.99;41.49;101857.41;5021211;28;19971;-50
2022/06/05 07:09:42;;;;;;;;;;;;;;;22.25;41.82;101854.41;5032599;28;19967;-50
2022/06/05 07:12:07;;;;;;;;;;;;;;;22.40;41.90;101854.72;5022547;28;19924;-45
2022/06/05 07:14:32;;;;;;;;;;;;;;;22.49;42.06;101858.41;5012577;28;19917;-45
2022/06/05 07:16:59;;;;;;;;;;;;;;;22.53;41.56;101854.97;5012280;28;19964;-52
2022/06/05 07:19:27;;;;;;;;;;;;;;;22.55;40.94;101842.78;5026454;28;20019;-50
2022/06/05 07:21:52;;;;;;;;;;;;;;;22.59;41.04;101834.09;5012141;28;20302;-55
2022/06/05 07:24:19;;;;;;;;;;;;;;;22.59;40.92;101832.38;5023882;28;20043;-57
2022/06/05 07:26:46;;;;;;;;;;;;;;;22.59;41.14;101828.84;5014611;28;19917;-61
2022/06/05 07:29:11;;;;;;;;;;;;;;;22.61;40.35;101832.38;5026836;28;19921;-61
2022/06/05 07:31:40;;;;;;;;;;;;;;;22.59;40.80;101819.25;4995369;28;19924;-57
2022/06/05 07:34:07;;;;;;;;;;;;;;;22.60;41.04;101825.34;5009143;28;19960;-60
2022/06/05 07:36:38;;;;;;;;;;;;;;;22.60;41.04;101814.84;5022318;28;19925;-61
2022/06/05 07:39:08;;;;;;;;;;;;;;;22.63;40.78;101814.91;5010074;28;19925;-60
2022/06/05 07:41:36;;;;;;;;;;;;;;;22.63;41.14;101809.66;5009069;28;19929;-51
2022/06/05 07:44:02;;;;;;;;;;;;;;;22.64;40.79;101803.56;5007475;28;19953;-56
2022/06/05 07:46:30;;;;;;;;;;;;;;;22.65;41.05;101807.06;5024168;28;20320;-56
2022/06/05 07:48:55;;;;;;;;;;;;;;;22.62;40.68;101813.13;5024399;28;20299;-56
2022/06/05 07:54:28;;;;;;;;;;;;;;;22.61;40.48;101811.38;5006796;28;20011;-52
2022/06/05 07:56:58;;;;;;;;;;;;;;;22.60;40.44;101796.47;5013146;28;20005;-56
2022/06/05 07:59:24;;;;;;;;;;;;;;;22.63;40.72;101799.16;5012592;28;19917;-64
2022/06/05 08:01:57;;;;;;;;;;;;;;;22.64;40.13;101787.81;5009449;28;19917;-66
2022/06/05 08:04:25;;;;;;;;;;;;;;;22.66;40.08;101788.72;4995401;28;19988;-66
2022/06/05 08:06:50;;;;;;;;;;;;;;;22.64;39.63;101784.31;5024244;28;19921;-71
2022/06/05 08:09:18;;;;;;;;;;;;;;;22.63;39.74;101788.66;5010678;28;19967;-56
2022/06/05 08:11:45;;;;;;;;;;;;;;;22.64;39.78;101795.69;5009895;28;19925;-56
2022/06/05 08:14:10;;;;;;;;;;;;;;;22.64;39.73;101795.69;5011001;28;19913;-56
2022/06/05 08:16:39;;;;;;;;;;;;;;;22.64;39.93;101790.41;5007485;28;19971;-54
2022/06/05 08:19:05;;;;;;;;;;;;;;;22.65;39.51;101792.19;4991855;28;20423;-59
2022/06/05 08:21:30;;;;;;;;;;;;;;;22.65;38.75;101786.94;5008534;28;20008;-56
2022/06/05 08:23:55;;;;;;;;;;;;;;;22.65;39.08;101775.56;5017818;28;20008;-56
2022/06/05 08:26:20;;;;;;;;;;;;;;;22.56;38.60;101778.91;5007449;28;19918;-59
2022/06/05 08:28:45;;;;;;;;;;;;;;;22.56;39.27;101776.28;4998049;28;20359;-57
2022/06/05 08:31:11;;;;;;;;;;;;;;;22.58;39.63;101769.31;5008966;28;19957;-57
2022/06/05 08:33:36;;;;;;;;;;;;;;;22.61;39.87;101769.38;5010194;28;19917;-55
2022/06/05 08:36:02;;;;;;;;;;;;;;;22.63;40.06;101778.16;5009717;28;22297;-55
2022/06/05 08:41:29;;;;;;;;;;;;;;;22.66;40.49;101783.47;5005836;28;20356;-56
2022/06/05 08:44:15;;;;;;;;;;;;;;;22.66;40.33;101775.56;5004562;28;19923;-57
2022/06/05 08:46:40;;;;;;;;;;;;;;;22.67;40.22;101779.97;4990174;28;20445;-56
2022/06/05 08:49:07;;;;;;;;;;;;;;;22.69;40.46;101777.38;5000099;28;20000;-57
2022/06/05 08:51:38;;;;;;;;;;;;;;;22.67;40.23;101777.34;5024569;28;19980;-56
2022/06/05 08:54:36;;;;;;;;;;;;;;;22.66;40.43;101783.47;5001868;28;20401;-56
2022/06/05 08:57:03;;;;;;;;;;;;;;;22.64;39.85;101774.66;4987013;28;19917;-57
2022/06/05 08:59:29;;;;;;;;;;;;;;;22.61;40.66;101774.63;5006846;28;20394;-57
2022/06/05 09:01:57;;;;;;;;;;;;;;;22.64;40.66;101774.66;5009123;28;19926;-56
2022/06/05 09:04:22;;;;;;;;;;;;;;;22.65;40.52;101771.19;5022970;28;19924;-57
2022/06/05 09:06:52;;;;;;;;;;;;;;;22.65;40.80;101773.81;5007300;28;19921;-57
2022/06/05 09:09:29;;;;;;;;;;;;;;;22.67;41.14;101764.22;5021444;28;20003;-57
2022/06/05 09:11:57;;;;;;;;;;;;;;;22.67;40.69;101764.22;5025282;28;19913;-57
2022/06/05 09:14:31;;;;;;;;;;;;;;;22.68;40.56;101763.34;5024058;28;19957;-57
2022/06/05 09:17:00;;;;;;;;;;;;;;;22.70;40.90;101753.75;5009417;28;20315;-57
2022/06/05 09:19:26;;;;;;;;;;;;;;;22.71;40.83;101752.03;5008851;28;19999;-56
2022/06/05 09:22:03;;;;;;;;;;;;;;;22.71;41.01;101742.41;5012673;28;19988;-56
2022/06/05 09:24:47;;;;;;;;;;;;;;;22.72;40.66;101741.53;5012511;28;19924;-57
2022/06/05 09:27:22;;;;;;;;;;;;;;;22.73;40.80;101738.06;5008831;28;19917;-57
2022/06/05 09:29:52;;;;;;;;;;;;;;;22.73;41.21;101743.31;5013656;28;20398;-57
2022/06/05 09:32:20;;;;;;;;;;;;;;;22.74;40.94;101726.69;5011853;28;20019;-58
2022/06/05 09:34:50;;;;;;;;;;;;;;;22.75;41.30;101717.09;5015071;28;19918;-58
2022/06/05 09:37:15;;;;;;;;;;;;;;;22.75;41.22;101712.69;5012004;28;19917;-57
2022/06/05 09:39:51;;;;;;;;;;;;;;;22.76;40.99;101714.47;5010661;28;20393;-57
2022/06/05 09:42:19;;;;;;;;;;;;;;;22.77;41.26;101710.13;5012550;28;19918;-57
2022/06/05 09:44:53;;;;;;;;;;;;;;;22.77;41.08;101703.09;5007926;28;19921;-57
2022/06/05 09:47:23;;;;;;;;;;;;;;;22.79;40.49;101683.88;5011853;28;19924;-56
2022/06/05 09:49:50;;;;;;;;;;;;;;;22.79;40.67;101684.75;5002174;28;19917;-57
2022/06/05 09:52:19;;;;;;;;;;;;;;;22.80;40.51;101665.53;4995871;28;19961;-57
2022/06/05 09:54:47;;;;;;;;;;;;;;;22.79;40.89;101662.84;5030689;28;19989;-57
2022/06/05 10:00:03;;;;;;;;;;;;;;;22.80;41.12;101664.63;5015148;28;19920;-57
2022/06/05 10:02:33;;;;;;;;;;;;;;;22.83;40.89;101659.44;5027783;28;19923;-57
2022/06/05 10:04:59;;;;;;;;;;;;;;;22.82;40.90;101650.66;5013906;28;19914;-58
2022/06/05 10:07:26;;;;;;;;;;;;;;;22.84;40.94;101645.44;4993362;28;20359;-57
2022/06/05 10:09:51;;;;;;;;;;;;;;;22.83;41.29;101638.44;5030238;28;19917;-57
2022/06/05 10:12:22;;;;;;;;;;;;;;;22.83;40.78;101643.69;5011169;28;20370;-58
2022/06/05 10:14:56;;;;;;;;;;;;;;;22.83;40.98;101635.81;5013864;28;19917;-58
2022/06/05 10:17:25;;;;;;;;;;;;;;;22.84;40.69;101629.69;4993423;28;20165;-56
2022/06/05 10:19:51;;;;;;;;;;;;;;;22.84;40.53;101629.69;5013680;28;19917;-58
2022/06/05 10:22:23;;;;;;;;;;;;;;;22.83;40.83;101622.69;5014638;28;20331;-57
2022/06/05 10:25:14;;;;;;;;;;;;;;;22.84;40.45;101624.44;5027298;28;19913;-56
2022/06/05 10:27:50;;;;;;;;;;;;;;;22.86;40.69;101622.72;5013826;28;19918;-56
2022/06/05 10:30:17;;;;;;;;;;;;;;;22.87;40.27;101624.47;4993022;28;20390;-57
2022/06/05 10:33:00;;;;;;;;;;;;;;;22.88;40.33;101632.38;5013499;28;19921;-55
2022/06/05 10:35:28;;;;;;;;;;;;;;;22.90;40.46;101632.41;5014022;28;19949;-56
2022/06/05 10:37:58;;;;;;;;;;;;;;;22.90;40.17;101621.91;5010614;28;19924;-56
2022/06/05 10:40:29;;;;;;;;;;;;;;;22.91;40.52;101631.53;5011887;28;19920;-58
2022/06/05 10:43:02;;;;;;;;;;;;;;;22.92;40.80;101622.81;5013148;28;20019;-55
2022/06/05 10:45:31;;;;;;;;;;;;;;;22.91;40.88;101621.03;4993002;28;19920;-58
2022/06/05 10:47:56;;;;;;;;;;;;;;;22.92;40.23;101604.41;5036714;28;19918;-56
2022/06/05 10:50:44;;;;;;;;;;;;;;;22.93;40.21;101603.56;5013701;28;19929;-57
2022/06/05 10:53:33;;;;;;;;;;;;;;;22.93;40.72;101603.56;4995450;28;19920;-57
2022/06/05 10:56:13;;;;;;;;;;;;;;;22.93;40.24;101593.03;5002401;28;19971;-57
2022/06/05 10:58:38;;;;;;;;;;;;;;;22.95;40.51;101588.69;4999634;28;19913;-58
2022/06/05 11:01:05;;;;;;;;;;;;;;;22.95;40.10;101596.56;5025155;28;19967;-57
2022/06/05 11:03:42;;;;;;;;;;;;;;;22.95;40.57;101591.31;5029344;28;19913;-58
2022/06/05 11:06:11;;;;;;;;;;;;;;;22.95;40.28;101593.94;5013971;28;19913;-56
2022/06/05 11:08:53;;;;;;;;;;;;;;;22.97;40.13;101589.59;5027700;28;20016;-57
2022/06/05 11:14:17;;;;;;;;;;;;;;;22.98;40.18;101580.84;5011469;28;19924;-57
2022/06/05 11:16:57;;;;;;;;;;;;;;;22.99;40.07;101593.13;5008541;28;20022;-56
2022/06/05 11:19:27;;;;;;;;;;;;;;;23.00;39.99;101594.88;5019160;28;19975;-56
2022/06/05 11:21:53;;;;;;;;;;;;;;;23.00;40.56;101594.88;5027397;28;19923;-56
2022/06/05 11:24:29;;;;;;;;;;;;;;;23.01;40.43;101596.66;5011866;28;20298;-57
2022/06/05 11:27:01;;;;;;;;;;;;;;;22.99;39.46;101598.38;5011058;28;19925;-57
2022/06/05 11:29:37;;;;;;;;;;;;;;;23.03;40.44;101597.56;5028159;28;19918;-59
2022/06/05 11:32:11;;;;;;;;;;;;;;;23.02;40.48;101598.41;5011584;28;19922;-57
2022/06/05 11:34:49;;;;;;;;;;;;;;;23.03;40.42;101597.56;5013498;28;20358;-57
2022/06/05 11:37:20;;;;;;;;;;;;;;;23.04;40.70;101596.69;5011019;28;19917;-57
2022/06/05 11:40:03;;;;;;;;;;;;;;;23.04;40.27;101596.69;5010242;28;19917;-56
2022/06/05 11:42:41;;;;;;;;;;;;;;;23.04;40.99;101575.66;4985360;28;19956;-57
2022/06/05 11:45:25;;;;;;;;;;;;;;;23.05;40.47;101561.66;5008764;28;20767;-57
2022/06/05 11:48:09;;;;;;;;;;;;;;;23.07;40.54;101560.81;5020456;28;19924;-59
2022/06/05 11:50:43;;;;;;;;;;;;;;;23.09;40.14;101562.56;5006049;28;19921;-55
2022/06/05 11:53:17;;;;;;;;;;;;;;;23.12;41.15;101561.75;4995169;28;19968;-57
2022/06/05 11:55:53;;;;;;;;;;;;;;;23.16;42.64;101550.41;5044025;28;19964;-57
2022/06/05 11:58:30;;;;;;;;;;;;;;;23.19;44.67;101537.31;5026755;28;19923;-56
2022/06/05 12:01:00;;;;;;;;;;;;;;;23.23;45.38;101539.09;5009648;28;19924;-56
2022/06/05 12:03:29;;;;;;;;;;;;;;;23.26;49.20;101528.66;5003798;28;19945;-58
2022/06/05 12:06:06;;;;;;;;;;;;;;;23.30;49.79;101530.44;5004377;28;19924;-58
2022/06/05 12:08:46;;;;;;;;;;;;;;;23.36;52.58;101520.84;5025027;28;20378;-56
2022/06/05 12:11:29;;;;;;;;;;;;;;;23.41;53.60;101511.28;5009042;28;20335;-53
2022/06/05 12:14:13;;;;;;;;;;;;;;;23.42;53.33;101502.53;5027715;28;19924;-52
2022/06/05 12:16:44;;;;;;;;;;;;;;;23.43;53.59;101496.41;5013260;28;19928;-51
2022/06/05 12:21:47;;;;;;;;;;;;;;;23.44;52.41;101477.13;4880789;22;19924;-64
2022/06/05 12:24:25;;;;;;;;;;;;;;;23.45;50.96;101478.88;5037579;28;19916;-65
2022/06/05 12:26:52;;;;;;;;;;;;;;;23.43;49.34;101483.25;5037958;28;19919;-64
2022/06/05 12:29:22;;;;;;;;;;;;;;;23.42;49.63;101489.38;5054865;28;19913;-64
2022/06/05 12:31:49;;;;;;;;;;;;;;;23.40;48.27;101483.22;5054091;28;19927;-64
2022/06/05 12:34:19;;;;;;;;;;;;;;;23.39;47.67;101486.72;5035926;28;19912;-64
2022/06/05 12:36:44;;;;;;;;;;;;;;;23.37;47.39;101483.19;5040393;28;19966;-64
2022/06/05 12:39:23;;;;;;;;;;;;;;;23.38;47.14;101484.97;5072514;28;19921;-65
2022/06/05 12:42:01;;;;;;;;;;;;;;;23.38;46.53;101484.97;5040054;28;19919;-65
2022/06/05 12:44:27;;;;;;;;;;;;;;;23.35;38.39;101480.56;5034681;28;19913;-67
2022/06/05 12:47:03;;;;;;;;;;;;;;;23.21;34.68;101467.25;5067322;28;20266;-67
2022/06/05 12:49:35;;;;;;;;;;;;;;;23.16;35.18;101463.69;5054924;28;19912;-68
2022/06/05 12:52:07;;;;;;;;;;;;;;;23.15;35.81;101459.31;5051099;28;20156;-68
2022/06/05 12:54:37;;;;;;;;;;;;;;;23.16;35.60;101458.44;5075599;28;20373;-67
2022/06/05 12:57:05;;;;;;;;;;;;;;;23.14;34.81;101454.91;5037824;28;19921;-68
2022/06/05 12:59:33;;;;;;;;;;;;;;;23.15;35.32;101461.94;5041178;28;19982;-68
2022/06/05 13:02:00;;;;;;;;;;;;;;;23.15;35.16;101462.78;5057725;28;19977;-68
2022/06/05 13:04:36;;;;;;;;;;;;;;;23.16;35.31;101447.94;5074820;28;20034;-68